createdAt,value
2022-07-30T00:03:53.810Z,101035.56
2022-07-30T00:08:51.394Z,101040.22
2022-07-30T00:13:49.703Z,101028.25
2022-07-30T00:18:48.041Z,101039.72
2022-07-30T00:24:01.242Z,101007.78
2022-07-30T00:29:09.437Z,101034.66
2022-07-30T00:34:09.387Z,101022.38
2022-07-30T00:39:10.063Z,101036.47
2022-07-30T00:44:11.032Z,101021.03
2022-07-30T00:49:12.666Z,101018.22
2022-07-30T00:54:15.722Z,101004.88
2022-07-30T00:59:13.968Z,101030.31
2022-07-30T01:04:12.421Z,100994.38
2022-07-30T01:09:14.416Z,100999.47
2022-07-30T01:14:16.003Z,101003.47
2022-07-30T01:19:46.023Z,101006.50
2022-07-30T01:24:58.915Z,101006.06
2022-07-30T01:29:59.082Z,100990.56
2022-07-30T01:35:01.769Z,100987.59
2022-07-30T01:40:00.542Z,100986.88
2022-07-30T01:45:02.641Z,100997.25
2022-07-30T01:50:03.656Z,100963.50
2022-07-30T01:55:20.793Z,100976.66
2022-07-30T02:00:23.117Z,100984.47
2022-07-30T02:05:21.523Z,100971.66
2022-07-30T02:10:36.600Z,100968.59
2022-07-30T02:15:46.839Z,100999.47
2022-07-30T02:20:56.649Z,100971.66
2022-07-30T02:25:57.126Z,100965.22
2022-07-30T02:31:01.273Z,100991.19
2022-07-30T02:36:03.605Z,100969.88
2022-07-30T02:41:23.205Z,100956.94
2022-07-30T02:46:23.733Z,100976.38
2022-07-30T02:51:58.059Z,100955.97
2022-07-30T02:57:01.225Z,100973.09
2022-07-30T03:02:03.610Z,100971.06
2022-07-30T03:07:08.560Z,100959.56
2022-07-30T03:12:07.286Z,100967.66
2022-07-30T03:17:09.394Z,100962.69
2022-07-30T03:22:08.677Z,100977.78
2022-07-30T03:27:10.502Z,100979.47
2022-07-30T03:32:13.556Z,101008.91
2022-07-30T03:37:12.159Z,101031.97
2022-07-30T03:42:12.816Z,101008.03
2022-07-30T03:47:12.917Z,101035.53
2022-07-30T03:52:17.626Z,101010.50
2022-07-30T03:57:20.510Z,100994.91
2022-07-30T04:02:20.874Z,100992.16
2022-07-30T04:07:47.884Z,101040.34
2022-07-30T04:12:50.826Z,101036.59
2022-07-30T04:17:53.439Z,101023.31
2022-07-30T04:22:55.440Z,101008.50
2022-07-30T04:28:02.854Z,101006.28
2022-07-30T04:33:15.666Z,101020.31
2022-07-30T04:38:34.202Z,101030.44
2022-07-30T04:43:33.997Z,101013.66
2022-07-30T04:48:36.150Z,101019.44
2022-07-30T04:53:44.960Z,101011.88
2022-07-30T04:58:47.346Z,100997.34
2022-07-30T05:03:49.808Z,100992.28
2022-07-30T05:08:51.520Z,100987.22
2022-07-30T05:13:52.400Z,100999.88
2022-07-30T05:18:54.303Z,100998.28
2022-07-30T05:23:53.908Z,101016.53
2022-07-30T05:29:20.070Z,101004.44
2022-07-30T05:34:27.190Z,101029.69
2022-07-30T05:39:28.559Z,100992.63
2022-07-30T05:44:47.356Z,101027.75
2022-07-30T05:49:47.363Z,101007.53
2022-07-30T05:54:46.680Z,101005.09
2022-07-30T06:00:06.340Z,101004.91
2022-07-30T06:05:33.188Z,101019.63
2022-07-30T06:10:34.179Z,101006.41
2022-07-30T06:15:34.903Z,100996.06
2022-07-30T06:20:36.241Z,101003.16
2022-07-30T06:25:59.670Z,100987.56
2022-07-30T06:30:59.523Z,100994.66
2022-07-30T06:36:15.581Z,101008.16
2022-07-30T06:41:23.021Z,100989.00
2022-07-30T06:46:28.691Z,100973.56
2022-07-30T06:51:27.389Z,100984.81
2022-07-30T06:56:31.972Z,100982.63
2022-07-30T07:01:37.894Z,100961.09
2022-07-30T07:06:39.557Z,100982.78
2022-07-30T07:11:43.819Z,100955.59
2022-07-30T07:16:50.803Z,100973.56
2022-07-30T07:22:27.554Z,100957.28
2022-07-30T07:27:27.497Z,100968.34
2022-07-30T07:32:31.702Z,100969.91
2022-07-30T07:37:30.508Z,100942.75
2022-07-30T07:42:29.081Z,100936.63
2022-07-30T07:47:28.990Z,100938.47
2022-07-30T07:52:41.465Z,100951.31
2022-07-30T07:57:40.714Z,100953.59
2022-07-30T08:02:44.149Z,100944.91
2022-07-30T08:07:43.099Z,100936.38
2022-07-30T08:12:41.459Z,100959.94
2022-07-30T08:17:45.750Z,100941.72
2022-07-30T08:22:55.723Z,100957.28
2022-07-30T08:27:57.232Z,100937.88
2022-07-30T08:32:56.442Z,100924.00
2022-07-30T08:37:55.755Z,100950.03
2022-07-30T08:42:55.632Z,100926.63
2022-07-30T08:47:55.140Z,100929.16
2022-07-30T08:52:59.351Z,100934.16
2022-07-30T08:57:57.964Z,100919.06
2022-07-30T09:02:57.671Z,100923.56
2022-07-30T09:07:59.486Z,100902.44
2022-07-30T09:13:00.120Z,100884.97
2022-07-30T09:18:04.379Z,100913.38
2022-07-30T09:23:07.114Z,100883.03
2022-07-30T09:28:34.598Z,100869.56
2022-07-30T09:33:47.345Z,100848.22
2022-07-30T09:39:07.022Z,100843.44
2022-07-30T09:44:38.522Z,100847.38
2022-07-30T09:49:37.825Z,100863.16
2022-07-30T09:54:53.055Z,100832.94
2022-07-30T10:00:23.434Z,100846.59
2022-07-30T10:05:51.257Z,100840.53
2022-07-30T10:10:52.457Z,100832.78
2022-07-30T10:15:51.165Z,100818.31
2022-07-30T10:20:53.685Z,100818.31
2022-07-30T10:26:13.365Z,100780.84
2022-07-30T10:31:48.836Z,100823.38
2022-07-30T10:36:57.890Z,100797.78
2022-07-30T10:42:08.807Z,100810.19
2022-07-30T10:47:09.361Z,100782.84
2022-07-30T10:52:08.630Z,100780.78
2022-07-30T10:57:23.138Z,100771.13
2022-07-30T11:02:37.242Z,100781.88
2022-07-30T11:13:06.424Z,100769.31
2022-07-30T11:18:13.139Z,100767.94
2022-07-30T11:23:19.260Z,100782.78
2022-07-30T11:28:42.472Z,100761.28
2022-07-30T11:33:41.970Z,100758.38
2022-07-30T11:38:53.830Z,100760.59
2022-07-30T11:44:31.108Z,100737.47
2022-07-30T11:49:36.118Z,100732.22
2022-07-30T11:54:34.390Z,100710.66
2022-07-30T11:59:58.687Z,100691.41
2022-07-30T12:04:57.499Z,100681.47
2022-07-30T12:10:27.016Z,100687.75
2022-07-30T12:15:42.638Z,100674.50
2022-07-30T12:20:41.368Z,100671.03
2022-07-30T12:25:47.772Z,100632.41
2022-07-30T12:30:52.130Z,100661.66
2022-07-30T12:35:59.358Z,100625.19
2022-07-30T12:41:04.574Z,100621.31
2022-07-30T12:46:05.350Z,100631.53
2022-07-30T12:51:12.401Z,100597.31
2022-07-30T12:56:19.459Z,100578.88
2022-07-30T13:01:18.204Z,100567.72
2022-07-30T13:06:20.496Z,100556.84
2022-07-30T13:11:24.891Z,100546.88
2022-07-30T13:16:24.608Z,100555.16
2022-07-30T13:21:23.756Z,100541.41
2022-07-30T13:26:28.023Z,100549.00
2022-07-30T13:31:27.124Z,100517.50
2022-07-30T13:36:44.309Z,100526.22
2022-07-30T13:41:43.728Z,100520.47
2022-07-30T13:46:50.421Z,100505.72
2022-07-30T13:51:52.009Z,100481.16
2022-07-30T13:56:53.880Z,100494.22
2022-07-30T14:01:54.231Z,100491.66
2022-07-30T14:06:57.721Z,100484.88
2022-07-30T14:11:56.388Z,100495.59
2022-07-30T14:16:55.497Z,100475.06
2022-07-30T14:21:54.562Z,100489.16
2022-07-30T14:26:58.008Z,100471.50
2022-07-30T14:32:00.500Z,100478.53
2022-07-30T14:37:02.951Z,100460.25
2022-07-30T14:42:02.953Z,100453.91
2022-07-30T14:47:04.517Z,100443.66
2022-07-30T14:52:05.647Z,100444.78
2022-07-30T14:57:07.072Z,100453.34
2022-07-30T15:02:10.898Z,100452.69
2022-07-30T15:07:14.421Z,100447.09
2022-07-30T15:12:26.985Z,100447.13
2022-07-30T15:17:31.122Z,100433.22
2022-07-30T15:22:34.519Z,100456.38
2022-07-30T15:27:34.284Z,100418.00
2022-07-30T15:32:39.391Z,100431.47
2022-07-30T15:37:42.041Z,100420.19
2022-07-30T15:42:43.351Z,100430.09
2022-07-30T15:47:41.856Z,100415.41
2022-07-30T15:52:41.265Z,100415.22
2022-07-30T15:57:40.840Z,100417.34
2022-07-30T16:02:39.241Z,100441.09
2022-07-30T16:07:39.191Z,100410.66
2022-07-30T16:12:40.126Z,100410.41
2022-07-30T16:17:38.110Z,100420.13
2022-07-30T16:22:36.830Z,100448.47
2022-07-30T16:27:35.819Z,100431.94
2022-07-30T16:32:41.402Z,100433.38
2022-07-30T16:37:40.919Z,100442.22
2022-07-30T16:42:40.765Z,100437.69
2022-07-30T16:47:42.837Z,100434.63
2022-07-30T16:52:42.839Z,100455.94
2022-07-30T16:57:45.568Z,100434.50
2022-07-30T17:02:45.427Z,100437.72
2022-07-30T17:07:44.375Z,100444.56
2022-07-30T17:12:42.577Z,100478.38
2022-07-30T17:17:50.387Z,100479.97
2022-07-30T17:22:50.939Z,100492.84
2022-07-30T17:27:50.248Z,100469.63
2022-07-30T17:32:51.728Z,100485.34
2022-07-30T17:37:53.178Z,100480.25
2022-07-30T17:42:52.224Z,100487.81
2022-07-30T17:47:54.702Z,100513.03
2022-07-30T18:11:49.929Z,100523.66
2022-07-30T18:16:48.376Z,100529.66
2022-07-30T18:21:47.025Z,100543.03
2022-07-30T18:26:48.254Z,100538.09
2022-07-30T18:31:48.030Z,100489.16
2022-07-30T18:37:12.126Z,100515.38
2022-07-30T18:42:16.115Z,100517.50
2022-07-30T18:47:14.353Z,100507.88
2022-07-30T18:52:12.436Z,100534.84
2022-07-30T18:57:19.411Z,100510.31
2022-07-30T19:02:33.496Z,100496.94
2022-07-30T19:07:48.166Z,100500.41
2022-07-30T19:13:22.114Z,100533.34
2022-07-30T19:18:22.762Z,100532.72
2022-07-30T19:23:22.391Z,100541.72
2022-07-30T19:28:21.312Z,100498.16
2022-07-30T19:33:20.918Z,100506.63
2022-07-30T19:38:21.674Z,100500.63
2022-07-30T19:43:25.184Z,100537.91
2022-07-30T19:48:29.369Z,100504.59
2022-07-30T19:53:34.407Z,100567.06
2022-07-30T19:58:46.262Z,100627.25
2022-07-30T20:03:49.411Z,100622.06
2022-07-30T20:08:49.801Z,100657.25
2022-07-30T20:14:16.255Z,100683.56
2022-07-30T20:19:22.178Z,100700.53
2022-07-30T20:24:21.168Z,100641.03
2022-07-30T20:29:27.714Z,100668.34
2022-07-30T20:34:27.556Z,100649.47
2022-07-30T20:39:25.794Z,100650.81
2022-07-30T20:44:25.569Z,100628.47
2022-07-30T20:49:29.011Z,100647.16
2022-07-30T20:54:35.401Z,100639.78
2022-07-30T20:59:40.811Z,100682.53
2022-07-30T21:04:52.780Z,100688.53
2022-07-30T21:09:57.479Z,100688.00
2022-07-30T21:14:58.318Z,100675.59
2022-07-30T21:19:57.332Z,100704.88
2022-07-30T21:25:08.258Z,100765.66
2022-07-30T21:30:07.232Z,100710.72
2022-07-30T21:35:08.647Z,100720.16
2022-07-30T21:40:10.980Z,100735.38
2022-07-30T21:45:09.960Z,100733.69
2022-07-30T21:50:10.841Z,100743.91
2022-07-30T21:55:13.373Z,100740.75
2022-07-30T22:00:23.049Z,100740.59
2022-07-30T22:05:38.303Z,100733.16
2022-07-30T22:10:52.507Z,100724.34
2022-07-30T22:15:59.711Z,100721.94
2022-07-30T22:20:57.986Z,100735.59
2022-07-30T22:26:00.180Z,100727.81
2022-07-30T22:30:59.782Z,100715.25
2022-07-30T22:35:59.144Z,100718.59
2022-07-30T22:41:07.251Z,100699.19
2022-07-30T22:46:14.745Z,100716.78
2022-07-30T22:52:19.571Z,100703.72
2022-07-30T22:57:03.809Z,100682.56
2022-07-30T23:02:03.034Z,100720.81
2022-07-30T23:07:00.935Z,100701.41
2022-07-30T23:12:05.738Z,100702.44
2022-07-30T23:17:06.987Z,100700.31
2022-07-30T23:22:12.088Z,100711.53
2022-07-30T23:27:10.393Z,100728.63
2022-07-30T23:32:08.453Z,100709.41
2022-07-30T23:37:10.592Z,100711.00
2022-07-30T23:42:12.057Z,100723.28
2022-07-30T23:47:11.713Z,100711.78
2022-07-30T23:52:10.318Z,100747.84
2022-07-30T23:57:09.058Z,100723.28
